< < Back
Terminal Aerodrome Forecast


Current Version              Previous Versions:   1  2  3  4  5  6  7  8  9  

Terminal Aerodrome Forecast

044
FTUS42 KMLB 021131
TAFDAB
TAF
KDAB 021131Z 0212/0312 17007KT P6SM FEW040 SCT080 BKN150
     FM021400 22012KT P6SM VCSH SCT030 BKN150
     FM021600 23013G20KT P6SM VCSH SCT040 BKN080
      TEMPO 0216/0220 3SM TSRA BKN020CB OVC040
     FM022200 23007KT P6SM SCT030 OVC060
     FM030200 19004KT P6SM FEW035 BKN090 OVC200=



Latest METAR

466
SAUS80 KWBC 030000 RRB
MTRDAB
METAR KDAB 022353Z 18006KT 9SM -RA FEW065 SCT110 BKN150 24/22 A2992 RMK
AO2 RAB41 SLP131 P0000 60000 T02440217 10317 20244 55006


USA.gov is the U.S. government's official web portal to all federal, state and local government web resources and services.